sensor_id;sensor_type;location;lat;lon;timestamp;P1;durP1;ratioP1;P2;durP2;ratioP2
52320;SDS011;38261;54.090;13.382;2023-11-21T00:01:12;8.30;;;4.50;;
52320;SDS011;38261;54.090;13.382;2023-11-21T00:02:34;5.87;;;4.40;;
52320;SDS011;38261;54.090;13.382;2023-11-21T00:03:56;10.13;;;5.17;;
52320;SDS011;38261;54.090;13.382;2023-11-21T00:05:19;5.80;;;4.30;;
52320;SDS011;38261;54.090;13.382;2023-11-21T00:06:41;6.03;;;4.33;;
52320;SDS011;38261;54.090;13.382;2023-11-21T00:08:03;6.90;;;4.00;;
52320;SDS011;38261;54.090;13.382;2023-11-21T00:09:26;7.10;;;4.47;;
52320;SDS011;38261;54.090;13.382;2023-11-21T00:10:49;5.10;;;4.07;;
52320;SDS011;38261;54.090;13.382;2023-11-21T00:12:11;6.73;;;4.30;;
52320;SDS011;38261;54.090;13.382;2023-11-21T00:13:35;5.93;;;3.70;;
52320;SDS011;38261;54.090;13.382;2023-11-21T00:14:57;6.57;;;4.10;;
52320;SDS011;38261;54.090;13.382;2023-11-21T00:16:19;6.23;;;3.90;;
52320;SDS011;38261;54.090;13.382;2023-11-21T00:17:43;6.50;;;3.97;;
52320;SDS011;38261;54.090;13.382;2023-11-21T00:19:05;7.70;;;3.90;;
52320;SDS011;38261;54.090;13.382;2023-11-21T00:20:28;6.80;;;3.90;;
52320;SDS011;38261;54.090;13.382;2023-11-21T00:21:50;8.50;;;4.43;;
52320;SDS011;38261;54.090;13.382;2023-11-21T00:23:12;5.40;;;3.87;;
52320;SDS011;38261;54.090;13.382;2023-11-21T00:24:34;8.83;;;4.53;;
52320;SDS011;38261;54.090;13.382;2023-11-21T00:25:56;5.60;;;3.80;;
52320;SDS011;38261;54.090;13.382;2023-11-21T00:27:19;6.70;;;4.00;;
52320;SDS011;38261;54.090;13.382;2023-11-21T00:28:41;5.67;;;3.93;;
52320;SDS011;38261;54.090;13.382;2023-11-21T00:30:04;8.37;;;4.00;;
52320;SDS011;38261;54.090;13.382;2023-11-21T00:31:27;6.63;;;4.07;;
52320;SDS011;38261;54.090;13.382;2023-11-21T00:32:49;7.47;;;4.30;;
52320;SDS011;38261;54.090;13.382;2023-11-21T00:34:12;4.90;;;3.83;;
52320;SDS011;38261;54.090;13.382;2023-11-21T00:35:34;9.50;;;5.00;;
52320;SDS011;38261;54.090;13.382;2023-11-21T00:36:56;7.53;;;4.00;;
52320;SDS011;38261;54.090;13.382;2023-11-21T00:38:19;7.23;;;4.20;;
52320;SDS011;38261;54.090;13.382;2023-11-21T00:39:41;6.53;;;4.77;;
52320;SDS011;38261;54.090;13.382;2023-11-21T00:41:03;10.43;;;4.53;;
52320;SDS011;38261;54.090;13.382;2023-11-21T00:42:26;7.47;;;4.57;;
52320;SDS011;38261;54.090;13.382;2023-11-21T00:43:49;6.63;;;4.30;;
52320;SDS011;38261;54.090;13.382;2023-11-21T00:45:12;6.70;;;4.20;;
52320;SDS011;38261;54.090;13.382;2023-11-21T00:46:34;8.00;;;4.87;;
52320;SDS011;38261;54.090;13.382;2023-11-21T00:47:56;8.40;;;4.30;;
52320;SDS011;38261;54.090;13.382;2023-11-21T00:49:19;6.50;;;4.20;;
52320;SDS011;38261;54.090;13.382;2023-11-21T00:50:42;9.00;;;4.47;;
52320;SDS011;38261;54.090;13.382;2023-11-21T00:52:05;8.03;;;4.80;;
52320;SDS011;38261;54.090;13.382;2023-11-21T00:53:28;8.07;;;4.20;;
52320;SDS011;38261;54.090;13.382;2023-11-21T00:54:50;12.83;;;4.60;;
52320;SDS011;38261;54.090;13.382;2023-11-21T00:56:12;6.33;;;4.53;;
52320;SDS011;38261;54.090;13.382;2023-11-21T00:57:35;5.87;;;4.27;;
52320;SDS011;38261;54.090;13.382;2023-11-21T00:58:57;9.37;;;4.27;;
52320;SDS011;38261;54.090;13.382;2023-11-21T01:00:19;7.53;;;4.97;;
52320;SDS011;38261;54.090;13.382;2023-11-21T01:01:42;8.50;;;5.00;;
52320;SDS011;38261;54.090;13.382;2023-11-21T01:03:04;8.20;;;4.87;;
52320;SDS011;38261;54.090;13.382;2023-11-21T01:04:27;6.50;;;4.53;;
52320;SDS011;38261;54.090;13.382;2023-11-21T01:05:49;7.27;;;4.60;;
52320;SDS011;38261;54.090;13.382;2023-11-21T01:07:11;7.57;;;4.17;;
52320;SDS011;38261;54.090;13.382;2023-11-21T01:08:35;7.87;;;4.30;;
52320;SDS011;38261;54.090;13.382;2023-11-21T01:09:57;8.13;;;4.30;;
52320;SDS011;38261;54.090;13.382;2023-11-21T01:11:19;7.90;;;5.20;;
52320;SDS011;38261;54.090;13.382;2023-11-21T01:12:42;9.63;;;5.37;;
52320;SDS011;38261;54.090;13.382;2023-11-21T01:14:04;7.20;;;4.27;;
52320;SDS011;38261;54.090;13.382;2023-11-21T01:15:26;7.77;;;4.43;;
52320;SDS011;38261;54.090;13.382;2023-11-21T01:16:48;8.23;;;4.20;;
52320;SDS011;38261;54.090;13.382;2023-11-21T01:18:11;5.90;;;3.60;;
52320;SDS011;38261;54.090;13.382;2023-11-21T01:19:33;5.67;;;3.80;;
52320;SDS011;38261;54.090;13.382;2023-11-21T01:20:55;4.80;;;3.73;;
52320;SDS011;38261;54.090;13.382;2023-11-21T01:22:19;7.10;;;4.70;;
52320;SDS011;38261;54.090;13.382;2023-11-21T01:23:47;6.10;;;3.70;;
52320;SDS011;38261;54.090;13.382;2023-11-21T01:25:09;7.20;;;4.10;;
52320;SDS011;38261;54.090;13.382;2023-11-21T01:26:32;9.53;;;4.00;;
52320;SDS011;38261;54.090;13.382;2023-11-21T01:27:55;7.57;;;4.60;;
52320;SDS011;38261;54.090;13.382;2023-11-21T01:29:17;7.17;;;3.90;;
52320;SDS011;38261;54.090;13.382;2023-11-21T01:30:40;6.53;;;3.63;;
52320;SDS011;38261;54.090;13.382;2023-11-21T01:32:02;6.47;;;4.33;;
52320;SDS011;38261;54.090;13.382;2023-11-21T01:33:25;6.40;;;4.17;;
52320;SDS011;38261;54.090;13.382;2023-11-21T01:34:47;4.83;;;3.30;;
52320;SDS011;38261;54.090;13.382;2023-11-21T01:36:11;6.00;;;4.00;;
52320;SDS011;38261;54.090;13.382;2023-11-21T01:37:33;5.07;;;3.87;;
52320;SDS011;38261;54.090;13.382;2023-11-21T01:38:56;7.67;;;4.30;;
52320;SDS011;38261;54.090;13.382;2023-11-21T01:40:20;6.93;;;4.60;;
52320;SDS011;38261;54.090;13.382;2023-11-21T01:41:43;5.40;;;3.63;;
52320;SDS011;38261;54.090;13.382;2023-11-21T01:43:06;6.53;;;4.07;;
52320;SDS011;38261;54.090;13.382;2023-11-21T01:44:30;6.07;;;4.13;;
52320;SDS011;38261;54.090;13.382;2023-11-21T01:45:53;8.00;;;4.20;;
52320;SDS011;38261;54.090;13.382;2023-11-21T01:47:18;3.87;;;3.37;;
52320;SDS011;38261;54.090;13.382;2023-11-21T01:48:40;8.30;;;4.17;;
52320;SDS011;38261;54.090;13.382;2023-11-21T01:50:03;9.10;;;4.40;;
52320;SDS011;38261;54.090;13.382;2023-11-21T01:51:28;6.83;;;4.30;;
52320;SDS011;38261;54.090;13.382;2023-11-21T01:52:50;6.17;;;3.77;;
52320;SDS011;38261;54.090;13.382;2023-11-21T01:54:13;8.80;;;4.40;;
52320;SDS011;38261;54.090;13.382;2023-11-21T01:55:39;8.47;;;4.27;;
52320;SDS011;38261;54.090;13.382;2023-11-21T01:57:03;7.10;;;3.50;;
52320;SDS011;38261;54.090;13.382;2023-11-21T01:58:28;8.23;;;4.33;;
52320;SDS011;38261;54.090;13.382;2023-11-21T01:59:50;5.60;;;3.60;;
52320;SDS011;38261;54.090;13.382;2023-11-21T02:01:15;6.70;;;3.60;;
52320;SDS011;38261;54.090;13.382;2023-11-21T02:02:40;5.93;;;4.07;;
52320;SDS011;38261;54.090;13.382;2023-11-21T02:04:06;9.23;;;4.60;;
52320;SDS011;38261;54.090;13.382;2023-11-21T02:05:30;7.27;;;4.37;;
52320;SDS011;38261;54.090;13.382;2023-11-21T02:06:52;5.00;;;3.50;;
52320;SDS011;38261;54.090;13.382;2023-11-21T02:08:15;5.83;;;3.83;;
52320;SDS011;38261;54.090;13.382;2023-11-21T02:09:38;5.17;;;4.30;;
52320;SDS011;38261;54.090;13.382;2023-11-21T02:11:03;6.43;;;3.60;;
52320;SDS011;38261;54.090;13.382;2023-11-21T02:12:26;5.73;;;3.73;;
52320;SDS011;38261;54.090;13.382;2023-11-21T02:13:49;9.07;;;5.07;;
52320;SDS011;38261;54.090;13.382;2023-11-21T02:15:14;5.90;;;3.57;;
52320;SDS011;38261;54.090;13.382;2023-11-21T02:16:38;4.40;;;3.33;;
52320;SDS011;38261;54.090;13.382;2023-11-21T02:18:00;6.80;;;3.63;;
52320;SDS011;38261;54.090;13.382;2023-11-21T02:19:25;6.53;;;3.40;;
52320;SDS011;38261;54.090;13.382;2023-11-21T02:20:47;6.20;;;3.70;;
52320;SDS011;38261;54.090;13.382;2023-11-21T02:22:09;8.50;;;3.97;;
52320;SDS011;38261;54.090;13.382;2023-11-21T02:23:33;7.23;;;3.90;;
52320;SDS011;38261;54.090;13.382;2023-11-21T02:24:56;6.27;;;4.20;;
52320;SDS011;38261;54.090;13.382;2023-11-21T02:26:18;7.67;;;4.43;;
52320;SDS011;38261;54.090;13.382;2023-11-21T02:27:42;8.20;;;3.73;;
52320;SDS011;38261;54.090;13.382;2023-11-21T02:29:04;7.30;;;3.80;;
52320;SDS011;38261;54.090;13.382;2023-11-21T02:30:27;4.43;;;3.50;;
52320;SDS011;38261;54.090;13.382;2023-11-21T02:31:52;8.80;;;4.23;;
52320;SDS011;38261;54.090;13.382;2023-11-21T02:33:16;7.40;;;3.80;;
52320;SDS011;38261;54.090;13.382;2023-11-21T02:34:38;5.57;;;4.10;;
52320;SDS011;38261;54.090;13.382;2023-11-21T02:36:01;5.70;;;3.73;;
52320;SDS011;38261;54.090;13.382;2023-11-21T02:37:24;6.33;;;4.13;;
52320;SDS011;38261;54.090;13.382;2023-11-21T02:38:46;6.40;;;3.33;;
52320;SDS011;38261;54.090;13.382;2023-11-21T02:40:09;6.40;;;3.63;;
52320;SDS011;38261;54.090;13.382;2023-11-21T02:41:33;5.50;;;3.80;;
52320;SDS011;38261;54.090;13.382;2023-11-21T02:42:56;5.83;;;3.47;;
52320;SDS011;38261;54.090;13.382;2023-11-21T02:44:20;7.63;;;4.80;;
52320;SDS011;38261;54.090;13.382;2023-11-21T02:45:42;8.43;;;4.53;;
52320;SDS011;38261;54.090;13.382;2023-11-21T02:47:05;7.23;;;4.73;;
52320;SDS011;38261;54.090;13.382;2023-11-21T02:48:27;7.93;;;4.33;;
52320;SDS011;38261;54.090;13.382;2023-11-21T02:49:50;11.43;;;4.10;;
52320;SDS011;38261;54.090;13.382;2023-11-21T02:51:13;8.67;;;5.30;;
52320;SDS011;38261;54.090;13.382;2023-11-21T02:52:37;10.20;;;5.40;;
52320;SDS011;38261;54.090;13.382;2023-11-21T02:54:01;8.17;;;4.97;;
52320;SDS011;38261;54.090;13.382;2023-11-21T02:55:28;11.03;;;5.07;;
52320;SDS011;38261;54.090;13.382;2023-11-21T02:56:50;11.50;;;5.40;;
52320;SDS011;38261;54.090;13.382;2023-11-21T02:58:12;10.93;;;5.13;;
52320;SDS011;38261;54.090;13.382;2023-11-21T02:59:34;8.90;;;5.20;;
52320;SDS011;38261;54.090;13.382;2023-11-21T03:00:56;8.17;;;5.47;;
52320;SDS011;38261;54.090;13.382;2023-11-21T03:02:18;7.27;;;4.90;;
52320;SDS011;38261;54.090;13.382;2023-11-21T03:03:40;8.50;;;5.10;;
52320;SDS011;38261;54.090;13.382;2023-11-21T03:05:03;9.37;;;5.17;;
52320;SDS011;38261;54.090;13.382;2023-11-21T03:06:26;11.57;;;5.10;;
52320;SDS011;38261;54.090;13.382;2023-11-21T03:07:48;9.27;;;4.50;;
52320;SDS011;38261;54.090;13.382;2023-11-21T03:09:11;8.70;;;5.40;;
52320;SDS011;38261;54.090;13.382;2023-11-21T03:10:37;9.30;;;4.50;;
52320;SDS011;38261;54.090;13.382;2023-11-21T03:12:00;11.20;;;4.60;;
52320;SDS011;38261;54.090;13.382;2023-11-21T03:13:22;8.73;;;3.67;;
52320;SDS011;38261;54.090;13.382;2023-11-21T03:14:44;6.07;;;3.70;;
52320;SDS011;38261;54.090;13.382;2023-11-21T03:16:09;4.43;;;3.27;;
52320;SDS011;38261;54.090;13.382;2023-11-21T03:17:32;4.97;;;3.30;;
52320;SDS011;38261;54.090;13.382;2023-11-21T03:18:57;3.77;;;2.90;;
52320;SDS011;38261;54.090;13.382;2023-11-21T03:20:20;6.73;;;2.93;;
52320;SDS011;38261;54.090;13.382;2023-11-21T03:21:42;4.23;;;2.50;;
52320;SDS011;38261;54.090;13.382;2023-11-21T03:23:04;4.57;;;2.83;;
52320;SDS011;38261;54.090;13.382;2023-11-21T03:24:26;6.00;;;2.90;;
52320;SDS011;38261;54.090;13.382;2023-11-21T03:25:49;3.20;;;2.30;;
52320;SDS011;38261;54.090;13.382;2023-11-21T03:27:11;5.27;;;2.80;;
52320;SDS011;38261;54.090;13.382;2023-11-21T03:28:33;5.00;;;2.20;;
52320;SDS011;38261;54.090;13.382;2023-11-21T03:29:55;2.97;;;2.10;;
52320;SDS011;38261;54.090;13.382;2023-11-21T03:31:18;5.13;;;2.30;;
52320;SDS011;38261;54.090;13.382;2023-11-21T03:32:40;4.73;;;2.63;;
52320;SDS011;38261;54.090;13.382;2023-11-21T03:34:03;5.30;;;2.27;;
52320;SDS011;38261;54.090;13.382;2023-11-21T03:35:25;3.30;;;2.33;;
52320;SDS011;38261;54.090;13.382;2023-11-21T03:36:48;4.53;;;2.93;;
52320;SDS011;38261;54.090;13.382;2023-11-21T03:38:10;3.50;;;2.40;;
52320;SDS011;38261;54.090;13.382;2023-11-21T03:39:32;7.07;;;2.27;;
52320;SDS011;38261;54.090;13.382;2023-11-21T03:40:54;2.73;;;2.53;;
52320;SDS011;38261;54.090;13.382;2023-11-21T03:42:16;5.60;;;2.10;;
52320;SDS011;38261;54.090;13.382;2023-11-21T03:43:39;4.07;;;2.37;;
52320;SDS011;38261;54.090;13.382;2023-11-21T03:45:01;4.47;;;2.80;;
52320;SDS011;38261;54.090;13.382;2023-11-21T03:46:25;6.83;;;2.70;;
52320;SDS011;38261;54.090;13.382;2023-11-21T03:47:47;7.13;;;2.57;;
52320;SDS011;38261;54.090;13.382;2023-11-21T03:49:09;2.60;;;2.40;;
52320;SDS011;38261;54.090;13.382;2023-11-21T03:50:32;3.67;;;2.47;;
52320;SDS011;38261;54.090;13.382;2023-11-21T03:51:55;2.53;;;2.03;;
52320;SDS011;38261;54.090;13.382;2023-11-21T03:53:18;2.90;;;2.20;;
52320;SDS011;38261;54.090;13.382;2023-11-21T03:54:40;3.13;;;2.43;;
52320;SDS011;38261;54.090;13.382;2023-11-21T03:56:02;2.83;;;2.40;;
52320;SDS011;38261;54.090;13.382;2023-11-21T03:57:25;3.93;;;2.23;;
52320;SDS011;38261;54.090;13.382;2023-11-21T03:58:48;2.90;;;2.07;;
52320;SDS011;38261;54.090;13.382;2023-11-21T04:00:13;5.30;;;2.37;;
52320;SDS011;38261;54.090;13.382;2023-11-21T04:01:35;3.60;;;1.90;;
52320;SDS011;38261;54.090;13.382;2023-11-21T04:02:57;6.50;;;2.23;;
52320;SDS011;38261;54.090;13.382;2023-11-21T04:04:20;2.80;;;2.10;;
52320;SDS011;38261;54.090;13.382;2023-11-21T04:05:42;9.03;;;2.40;;
52320;SDS011;38261;54.090;13.382;2023-11-21T04:07:04;3.13;;;1.60;;
52320;SDS011;38261;54.090;13.382;2023-11-21T04:08:27;4.57;;;2.30;;
52320;SDS011;38261;54.090;13.382;2023-11-21T04:09:49;4.83;;;1.97;;
52320;SDS011;38261;54.090;13.382;2023-11-21T04:11:11;3.70;;;2.00;;
52320;SDS011;38261;54.090;13.382;2023-11-21T04:12:34;4.03;;;2.07;;
52320;SDS011;38261;54.090;13.382;2023-11-21T04:13:57;2.23;;;1.80;;
52320;SDS011;38261;54.090;13.382;2023-11-21T04:15:20;2.10;;;1.63;;
52320;SDS011;38261;54.090;13.382;2023-11-21T04:16:42;2.67;;;1.90;;
52320;SDS011;38261;54.090;13.382;2023-11-21T04:18:04;3.70;;;2.27;;
52320;SDS011;38261;54.090;13.382;2023-11-21T04:19:27;3.80;;;1.90;;
52320;SDS011;38261;54.090;13.382;2023-11-21T04:20:49;3.00;;;2.30;;
52320;SDS011;38261;54.090;13.382;2023-11-21T04:22:11;3.80;;;2.30;;
52320;SDS011;38261;54.090;13.382;2023-11-21T04:23:33;3.33;;;2.67;;
52320;SDS011;38261;54.090;13.382;2023-11-21T04:24:56;5.60;;;2.00;;
52320;SDS011;38261;54.090;13.382;2023-11-21T04:26:18;3.27;;;2.47;;
52320;SDS011;38261;54.090;13.382;2023-11-21T04:27:40;3.20;;;2.37;;
52320;SDS011;38261;54.090;13.382;2023-11-21T04:29:05;3.73;;;2.37;;
52320;SDS011;38261;54.090;13.382;2023-11-21T04:30:27;5.07;;;2.23;;
52320;SDS011;38261;54.090;13.382;2023-11-21T04:31:49;3.37;;;2.03;;
52320;SDS011;38261;54.090;13.382;2023-11-21T04:33:11;6.20;;;2.83;;
52320;SDS011;38261;54.090;13.382;2023-11-21T04:34:33;3.53;;;2.63;;
52320;SDS011;38261;54.090;13.382;2023-11-21T04:35:56;3.70;;;2.33;;
52320;SDS011;38261;54.090;13.382;2023-11-21T04:37:18;4.73;;;2.17;;
52320;SDS011;38261;54.090;13.382;2023-11-21T04:38:40;4.20;;;2.40;;
52320;SDS011;38261;54.090;13.382;2023-11-21T04:40:04;3.30;;;2.13;;
52320;SDS011;38261;54.090;13.382;2023-11-21T04:41:30;6.40;;;2.73;;
52320;SDS011;38261;54.090;13.382;2023-11-21T04:42:53;2.50;;;2.13;;
52320;SDS011;38261;54.090;13.382;2023-11-21T04:44:15;4.60;;;2.37;;
52320;SDS011;38261;54.090;13.382;2023-11-21T04:45:38;4.20;;;2.03;;
52320;SDS011;38261;54.090;13.382;2023-11-21T04:47:02;3.10;;;2.07;;
52320;SDS011;38261;54.090;13.382;2023-11-21T04:48:26;4.20;;;2.27;;
52320;SDS011;38261;54.090;13.382;2023-11-21T04:49:48;5.03;;;2.33;;
52320;SDS011;38261;54.090;13.382;2023-11-21T04:51:10;4.67;;;2.93;;
52320;SDS011;38261;54.090;13.382;2023-11-21T04:52:35;2.67;;;2.00;;
52320;SDS011;38261;54.090;13.382;2023-11-21T04:53:57;3.03;;;2.40;;
52320;SDS011;38261;54.090;13.382;2023-11-21T04:55:20;4.30;;;2.47;;
52320;SDS011;38261;54.090;13.382;2023-11-21T04:56:42;5.67;;;2.37;;
52320;SDS011;38261;54.090;13.382;2023-11-21T04:58:04;2.20;;;1.90;;
52320;SDS011;38261;54.090;13.382;2023-11-21T04:59:26;5.47;;;2.73;;
52320;SDS011;38261;54.090;13.382;2023-11-21T05:00:48;4.00;;;2.63;;
52320;SDS011;38261;54.090;13.382;2023-11-21T05:02:11;5.90;;;2.73;;
52320;SDS011;38261;54.090;13.382;2023-11-21T05:03:53;3.13;;;2.00;;
52320;SDS011;38261;54.090;13.382;2023-11-21T05:05:16;2.77;;;2.00;;
52320;SDS011;38261;54.090;13.382;2023-11-21T05:06:38;5.97;;;3.67;;
52320;SDS011;38261;54.090;13.382;2023-11-21T05:08:00;2.90;;;2.30;;
52320;SDS011;38261;54.090;13.382;2023-11-21T05:09:23;3.00;;;2.30;;
52320;SDS011;38261;54.090;13.382;2023-11-21T05:10:45;2.63;;;2.23;;
52320;SDS011;38261;54.090;13.382;2023-11-21T05:12:07;3.10;;;2.20;;
52320;SDS011;38261;54.090;13.382;2023-11-21T05:13:30;2.80;;;1.93;;
52320;SDS011;38261;54.090;13.382;2023-11-21T05:14:55;2.60;;;2.10;;
52320;SDS011;38261;54.090;13.382;2023-11-21T05:16:17;2.83;;;2.40;;
52320;SDS011;38261;54.090;13.382;2023-11-21T05:17:40;2.30;;;1.97;;
52320;SDS011;38261;54.090;13.382;2023-11-21T05:19:06;2.70;;;2.27;;
52320;SDS011;38261;54.090;13.382;2023-11-21T05:20:28;6.83;;;3.70;;
52320;SDS011;38261;54.090;13.382;2023-11-21T05:21:50;2.90;;;2.27;;
52320;SDS011;38261;54.090;13.382;2023-11-21T05:23:13;4.73;;;2.83;;
52320;SDS011;38261;54.090;13.382;2023-11-21T05:24:35;7.80;;;2.30;;
52320;SDS011;38261;54.090;13.382;2023-11-21T05:25:57;5.10;;;2.70;;
52320;SDS011;38261;54.090;13.382;2023-11-21T05:27:19;6.40;;;2.27;;
52320;SDS011;38261;54.090;13.382;2023-11-21T05:28:41;4.43;;;2.57;;
52320;SDS011;38261;54.090;13.382;2023-11-21T05:30:03;4.60;;;2.63;;
52320;SDS011;38261;54.090;13.382;2023-11-21T05:31:34;5.53;;;3.07;;
52320;SDS011;38261;54.090;13.382;2023-11-21T05:32:56;4.20;;;2.70;;
52320;SDS011;38261;54.090;13.382;2023-11-21T05:34:18;5.03;;;2.77;;
52320;SDS011;38261;54.090;13.382;2023-11-21T05:35:42;5.17;;;3.47;;
52320;SDS011;38261;54.090;13.382;2023-11-21T05:37:04;4.70;;;2.87;;
52320;SDS011;38261;54.090;13.382;2023-11-21T05:38:27;4.20;;;3.13;;
52320;SDS011;38261;54.090;13.382;2023-11-21T05:39:49;3.93;;;2.93;;
52320;SDS011;38261;54.090;13.382;2023-11-21T05:41:11;5.60;;;3.40;;
52320;SDS011;38261;54.090;13.382;2023-11-21T05:42:35;6.63;;;3.30;;
52320;SDS011;38261;54.090;13.382;2023-11-21T05:43:59;7.37;;;3.80;;
52320;SDS011;38261;54.090;13.382;2023-11-21T05:45:23;4.73;;;3.37;;
52320;SDS011;38261;54.090;13.382;2023-11-21T05:46:45;4.20;;;3.17;;
52320;SDS011;38261;54.090;13.382;2023-11-21T05:48:08;7.10;;;3.50;;
52320;SDS011;38261;54.090;13.382;2023-11-21T05:49:30;6.37;;;4.00;;
52320;SDS011;38261;54.090;13.382;2023-11-21T05:50:52;6.57;;;3.70;;
52320;SDS011;38261;54.090;13.382;2023-11-21T05:52:14;5.40;;;3.80;;
52320;SDS011;38261;54.090;13.382;2023-11-21T05:53:36;8.57;;;3.70;;
52320;SDS011;38261;54.090;13.382;2023-11-21T05:54:58;4.97;;;3.23;;
52320;SDS011;38261;54.090;13.382;2023-11-21T05:56:21;14.87;;;5.37;;
52320;SDS011;38261;54.090;13.382;2023-11-21T05:57:43;5.43;;;3.40;;
52320;SDS011;38261;54.090;13.382;2023-11-21T05:59:06;3.87;;;3.13;;
52320;SDS011;38261;54.090;13.382;2023-11-21T06:00:28;6.60;;;3.47;;
52320;SDS011;38261;54.090;13.382;2023-11-21T06:01:50;6.10;;;3.70;;
52320;SDS011;38261;54.090;13.382;2023-11-21T06:03:13;8.17;;;4.30;;
52320;SDS011;38261;54.090;13.382;2023-11-21T06:04:36;7.97;;;4.20;;
52320;SDS011;38261;54.090;13.382;2023-11-21T06:05:59;6.87;;;3.90;;
52320;SDS011;38261;54.090;13.382;2023-11-21T06:07:21;6.90;;;4.27;;
52320;SDS011;38261;54.090;13.382;2023-11-21T06:08:43;5.63;;;3.60;;
52320;SDS011;38261;54.090;13.382;2023-11-21T06:10:06;6.47;;;3.70;;
52320;SDS011;38261;54.090;13.382;2023-11-21T06:11:32;5.40;;;3.47;;
52320;SDS011;38261;54.090;13.382;2023-11-21T06:12:55;5.67;;;3.83;;
52320;SDS011;38261;54.090;13.382;2023-11-21T06:14:17;6.00;;;4.07;;
52320;SDS011;38261;54.090;13.382;2023-11-21T06:15:39;7.10;;;4.00;;
52320;SDS011;38261;54.090;13.382;2023-11-21T06:17:02;6.10;;;4.00;;
52320;SDS011;38261;54.090;13.382;2023-11-21T06:18:24;4.67;;;4.03;;
52320;SDS011;38261;54.090;13.382;2023-11-21T06:19:46;9.40;;;4.67;;
52320;SDS011;38261;54.090;13.382;2023-11-21T06:21:11;7.47;;;4.90;;
52320;SDS011;38261;54.090;13.382;2023-11-21T06:22:38;6.63;;;3.63;;
52320;SDS011;38261;54.090;13.382;2023-11-21T06:24:01;9.83;;;3.73;;
52320;SDS011;38261;54.090;13.382;2023-11-21T06:25:24;5.60;;;3.73;;
52320;SDS011;38261;54.090;13.382;2023-11-21T06:26:46;5.53;;;4.00;;
52320;SDS011;38261;54.090;13.382;2023-11-21T06:28:10;8.50;;;4.67;;
52320;SDS011;38261;54.090;13.382;2023-11-21T06:29:32;7.43;;;3.77;;
52320;SDS011;38261;54.090;13.382;2023-11-21T06:30:54;6.10;;;4.10;;
52320;SDS011;38261;54.090;13.382;2023-11-21T06:32:16;8.83;;;4.17;;
52320;SDS011;38261;54.090;13.382;2023-11-21T06:33:40;10.60;;;4.00;;
52320;SDS011;38261;54.090;13.382;2023-11-21T06:35:02;7.33;;;4.80;;
52320;SDS011;38261;54.090;13.382;2023-11-21T06:36:26;6.60;;;4.27;;
52320;SDS011;38261;54.090;13.382;2023-11-21T06:37:48;7.83;;;4.93;;
52320;SDS011;38261;54.090;13.382;2023-11-21T06:39:11;8.90;;;4.70;;
52320;SDS011;38261;54.090;13.382;2023-11-21T06:40:36;16.00;;;4.90;;
52320;SDS011;38261;54.090;13.382;2023-11-21T06:41:58;6.20;;;4.63;;
52320;SDS011;38261;54.090;13.382;2023-11-21T06:43:21;7.17;;;4.53;;
52320;SDS011;38261;54.090;13.382;2023-11-21T06:44:44;9.03;;;5.70;;
52320;SDS011;38261;54.090;13.382;2023-11-21T06:46:06;7.60;;;4.23;;
52320;SDS011;38261;54.090;13.382;2023-11-21T06:47:28;7.70;;;4.90;;
52320;SDS011;38261;54.090;13.382;2023-11-21T06:48:51;7.67;;;5.00;;
52320;SDS011;38261;54.090;13.382;2023-11-21T06:50:13;9.73;;;4.93;;
52320;SDS011;38261;54.090;13.382;2023-11-21T06:51:36;10.13;;;5.10;;
52320;SDS011;38261;54.090;13.382;2023-11-21T06:52:58;9.00;;;4.77;;
52320;SDS011;38261;54.090;13.382;2023-11-21T06:54:20;10.40;;;5.60;;
52320;SDS011;38261;54.090;13.382;2023-11-21T06:55:43;11.17;;;5.93;;
52320;SDS011;38261;54.090;13.382;2023-11-21T06:57:05;10.80;;;6.03;;
52320;SDS011;38261;54.090;13.382;2023-11-21T06:58:27;9.10;;;5.60;;
52320;SDS011;38261;54.090;13.382;2023-11-21T06:59:49;9.13;;;5.73;;
52320;SDS011;38261;54.090;13.382;2023-11-21T07:01:14;8.77;;;5.67;;
52320;SDS011;38261;54.090;13.382;2023-11-21T07:02:37;13.53;;;6.57;;
52320;SDS011;38261;54.090;13.382;2023-11-21T07:04:00;9.77;;;5.70;;
52320;SDS011;38261;54.090;13.382;2023-11-21T07:05:22;14.30;;;6.27;;
52320;SDS011;38261;54.090;13.382;2023-11-21T07:06:44;9.70;;;5.83;;
52320;SDS011;38261;54.090;13.382;2023-11-21T07:08:06;12.83;;;6.10;;
52320;SDS011;38261;54.090;13.382;2023-11-21T07:09:29;10.57;;;6.17;;
52320;SDS011;38261;54.090;13.382;2023-11-21T07:10:52;15.17;;;7.47;;
52320;SDS011;38261;54.090;13.382;2023-11-21T07:12:14;11.33;;;6.60;;
52320;SDS011;38261;54.090;13.382;2023-11-21T07:13:36;12.53;;;6.17;;
52320;SDS011;38261;54.090;13.382;2023-11-21T07:14:59;13.70;;;7.67;;
52320;SDS011;38261;54.090;13.382;2023-11-21T07:16:21;12.83;;;6.83;;
52320;SDS011;38261;54.090;13.382;2023-11-21T07:17:45;11.87;;;7.10;;
52320;SDS011;38261;54.090;13.382;2023-11-21T07:19:08;10.73;;;6.30;;
52320;SDS011;38261;54.090;13.382;2023-11-21T07:20:30;17.10;;;9.40;;
52320;SDS011;38261;54.090;13.382;2023-11-21T07:21:52;13.80;;;8.60;;
52320;SDS011;38261;54.090;13.382;2023-11-21T07:23:14;11.60;;;6.43;;
52320;SDS011;38261;54.090;13.382;2023-11-21T07:24:37;16.70;;;7.47;;
52320;SDS011;38261;54.090;13.382;2023-11-21T07:25:59;12.13;;;7.47;;
52320;SDS011;38261;54.090;13.382;2023-11-21T07:27:21;18.10;;;9.43;;
52320;SDS011;38261;54.090;13.382;2023-11-21T07:28:43;10.70;;;6.67;;
52320;SDS011;38261;54.090;13.382;2023-11-21T07:30:06;11.77;;;5.80;;
52320;SDS011;38261;54.090;13.382;2023-11-21T07:31:31;11.17;;;6.53;;
52320;SDS011;38261;54.090;13.382;2023-11-21T07:32:56;20.63;;;6.93;;
52320;SDS011;38261;54.090;13.382;2023-11-21T07:34:19;11.00;;;6.23;;
52320;SDS011;38261;54.090;13.382;2023-11-21T07:35:42;15.20;;;6.60;;
52320;SDS011;38261;54.090;13.382;2023-11-21T07:37:04;11.33;;;6.73;;
52320;SDS011;38261;54.090;13.382;2023-11-21T07:38:26;11.70;;;7.27;;
52320;SDS011;38261;54.090;13.382;2023-11-21T07:39:49;13.20;;;7.03;;
52320;SDS011;38261;54.090;13.382;2023-11-21T07:41:16;17.87;;;6.30;;
52320;SDS011;38261;54.090;13.382;2023-11-21T07:42:51;13.67;;;7.60;;
52320;SDS011;38261;54.090;13.382;2023-11-21T07:44:14;11.73;;;7.00;;
52320;SDS011;38261;54.090;13.382;2023-11-21T07:45:38;10.70;;;5.93;;
52320;SDS011;38261;54.090;13.382;2023-11-21T07:47:00;12.83;;;6.80;;
52320;SDS011;38261;54.090;13.382;2023-11-21T07:48:22;9.77;;;6.20;;
52320;SDS011;38261;54.090;13.382;2023-11-21T07:49:44;12.43;;;6.90;;
52320;SDS011;38261;54.090;13.382;2023-11-21T07:51:08;19.50;;;8.47;;
52320;SDS011;38261;54.090;13.382;2023-11-21T07:52:31;9.83;;;7.00;;
52320;SDS011;38261;54.090;13.382;2023-11-21T07:53:53;12.73;;;6.70;;
52320;SDS011;38261;54.090;13.382;2023-11-21T07:55:17;26.60;;;11.30;;
52320;SDS011;38261;54.090;13.382;2023-11-21T07:56:39;12.57;;;7.50;;
52320;SDS011;38261;54.090;13.382;2023-11-21T07:58:01;8.70;;;6.17;;
52320;SDS011;38261;54.090;13.382;2023-11-21T07:59:25;10.17;;;5.90;;
52320;SDS011;38261;54.090;13.382;2023-11-21T08:00:47;13.83;;;6.80;;
52320;SDS011;38261;54.090;13.382;2023-11-21T08:02:09;23.60;;;12.47;;
52320;SDS011;38261;54.090;13.382;2023-11-21T08:03:31;15.80;;;8.60;;
52320;SDS011;38261;54.090;13.382;2023-11-21T08:04:54;10.67;;;6.60;;
52320;SDS011;38261;54.090;13.382;2023-11-21T08:06:18;15.77;;;6.87;;
52320;SDS011;38261;54.090;13.382;2023-11-21T08:07:41;11.00;;;6.50;;
52320;SDS011;38261;54.090;13.382;2023-11-21T08:09:03;48.20;;;23.73;;
52320;SDS011;38261;54.090;13.382;2023-11-21T08:10:25;8.63;;;5.40;;